PWSweather.com
Personal Weather Stations
Station Observations
KFLPOINC2
Deerwood Estates, Poinciana, FL 34758

Deerwood EstatesPoinciana, FL 34758

Lat: 28.161417, Lon: -81.477557

Elevation: 72

Station Type: Ambient Weather WS 2080

High Low Average
Temperature 85.1°F29.5°F 79.2°F26.2°F 81.7°F27.6°F
Dew Point 73.4°F23.0°F 71.1°F21.7°F 72.4°F22.4°F
Winds 3.1 mph E5.0 mph E Calm Calm 0.9 mph 1.4 mph
Wind Gusts 6.9 mph11.1 mph -- 3.1 mph5.0 mph
Humidity 82% 63% 74%
Pressure 29.92 in1013.20 in 29.92 in1013.20 in -
Precipitation 0.00 in0.00 in - -
Hour Temp Dew Point Humidity Winds Wind Gusts Pressure Precip Precip Rate Daily Precip Total
12:00 AM 77.5°F25.3°C 73.4°F23.0°C 87% Calm Calm -- 29.92 in1013.2 mb 0.00 in0.0 mm 0.00 in/hr0.0 mm/hr 0.00 in0.0 mm
12:05 AM 77.5°F25.3°C 73.4°F23.0°C 87% Calm Calm -- 29.92 in1013.2 mb 0.00 in0.0 mm 0.00 in/hr0.0 mm/hr 0.00 in0.0 mm
12:10 AM 77.4°F25.2°C 73.2°F22.9°C 87% Calm Calm -- 29.92 in1013.2 mb 0.00 in0.0 mm 0.00 in/hr0.0 mm/hr 0.00 in0.0 mm
12:15 AM 77.2°F25.1°C 73.1°F22.8°C 87% Calm Calm -- 29.92 in1013.2 mb 0.00 in0.0 mm 0.00 in/hr0.0 mm/hr 0.00 in0.0 mm
12:20 AM 77.2°F25.1°C 73.1°F22.8°C 87% Calm Calm -- 29.92 in1013.2 mb 0.00 in0.0 mm 0.00 in/hr0.0 mm/hr 0.00 in0.0 mm
12:25 AM 77.0°F25.0°C 72.9°F22.7°C 87% Calm Calm -- 29.92 in1013.2 mb 0.00 in0.0 mm 0.00 in/hr0.0 mm/hr 0.00 in0.0 mm
12:30 AM 77.0°F25.0°C 72.9°F22.7°C 87% Calm Calm -- 29.92 in1013.2 mb 0.00 in0.0 mm 0.00 in/hr0.0 mm/hr 0.00 in0.0 mm
12:35 AM 77.0°F25.0°C 72.9°F22.7°C 87% Calm Calm -- 29.92 in1013.2 mb 0.00 in0.0 mm 0.00 in/hr0.0 mm/hr 0.00 in0.0 mm
12:40 AM 77.0°F25.0°C 72.9°F22.7°C 87% Calm Calm -- 29.92 in1013.2 mb 0.00 in0.0 mm 0.00 in/hr0.0 mm/hr 0.00 in0.0 mm
12:45 AM 76.8°F24.9°C 73.4°F23.0°C 89% Calm Calm -- 29.92 in1013.2 mb 0.00 in0.0 mm 0.00 in/hr0.0 mm/hr 0.00 in0.0 mm
12:50 AM 77.0°F25.0°C 73.2°F22.9°C 88% Calm Calm -- 29.92 in1013.2 mb 0.00 in0.0 mm 0.00 in/hr0.0 mm/hr 0.00 in0.0 mm
12:55 AM 76.8°F24.9°C 73.4°F23.0°C 89% Calm Calm -- 29.92 in1013.2 mb 0.00 in0.0 mm 0.00 in/hr0.0 mm/hr 0.00 in0.0 mm
01:00 AM 76.8°F24.9°C 73.4°F23.0°C 89% Calm Calm -- 29.92 in1013.2 mb 0.00 in0.0 mm 0.00 in/hr0.0 mm/hr 0.00 in0.0 mm
01:05 AM 76.6°F24.8°C 73.5°F23.1°C 90% Calm Calm -- 29.92 in1013.2 mb 0.00 in0.0 mm 0.00 in/hr0.0 mm/hr 0.00 in0.0 mm
01:10 AM 76.5°F24.7°C 73.4°F23.0°C 90% Calm Calm -- 29.92 in1013.2 mb 0.00 in0.0 mm 0.00 in/hr0.0 mm/hr 0.00 in0.0 mm
01:15 AM 76.5°F24.7°C 73.4°F23.0°C 90% Calm Calm -- 29.92 in1013.2 mb 0.00 in0.0 mm 0.00 in/hr0.0 mm/hr 0.00 in0.0 mm
01:20 AM 76.3°F24.6°C 73.2°F22.9°C 90% Calm Calm -- 29.92 in1013.2 mb 0.00 in0.0 mm 0.00 in/hr0.0 mm/hr 0.00 in0.0 mm
01:25 AM 76.1°F24.5°C 73.0°F22.8°C 90% Calm Calm -- 29.92 in1013.2 mb 0.00 in0.0 mm 0.00 in/hr0.0 mm/hr 0.00 in0.0 mm
01:30 AM 76.1°F24.5°C 73.0°F22.8°C 90% Calm Calm -- 29.92 in1013.2 mb 0.00 in0.0 mm 0.00 in/hr0.0 mm/hr 0.00 in0.0 mm
01:35 AM 75.9°F24.4°C 72.8°F22.7°C 90% Calm Calm -- 29.92 in1013.2 mb 0.00 in0.0 mm 0.00 in/hr0.0 mm/hr 0.00 in0.0 mm
01:40 AM 75.9°F24.4°C 72.8°F22.7°C 90% Calm Calm -- 29.92 in1013.2 mb 0.00 in0.0 mm 0.00 in/hr0.0 mm/hr 0.00 in0.0 mm
01:45 AM 75.7°F24.3°C 72.6°F22.6°C 90% Calm Calm -- 29.92 in1013.2 mb 0.00 in0.0 mm 0.00 in/hr0.0 mm/hr 0.00 in0.0 mm
01:50 AM 75.7°F24.3°C 72.6°F22.6°C 90% Calm Calm -- 29.92 in1013.2 mb 0.00 in0.0 mm 0.00 in/hr0.0 mm/hr 0.00 in0.0 mm
01:55 AM 75.7°F24.3°C 73.0°F22.8°C 91% Calm Calm -- 29.92 in1013.2 mb 0.00 in0.0 mm 0.00 in/hr0.0 mm/hr 0.00 in0.0 mm
02:00 AM 75.6°F24.2°C 72.8°F22.7°C 91% Calm Calm -- 29.92 in1013.2 mb 0.00 in0.0 mm 0.00 in/hr0.0 mm/hr 0.00 in0.0 mm
02:05 AM 75.6°F24.2°C 72.8°F22.7°C 91% 0.7 mph NW1.1 kmh NW 2.2 mph3.5 kmh 29.92 in1013.2 mb 0.00 in0.0 mm 0.00 in/hr0.0 mm/hr 0.00 in0.0 mm
02:10 AM 75.6°F24.2°C 72.8°F22.7°C 91% Calm Calm 2.2 mph3.5 kmh 29.92 in1013.2 mb 0.00 in0.0 mm 0.00 in/hr0.0 mm/hr 0.00 in0.0 mm
02:15 AM 75.6°F24.2°C 72.8°F22.7°C 91% Calm Calm 2.2 mph3.5 kmh 29.92 in1013.2 mb 0.00 in0.0 mm 0.00 in/hr0.0 mm/hr 0.00 in0.0 mm
02:20 AM 75.6°F24.2°C 72.8°F22.7°C 91% Calm Calm 1.6 mph2.6 kmh 29.92 in1013.2 mb 0.00 in0.0 mm 0.00 in/hr0.0 mm/hr 0.00 in0.0 mm
02:25 AM 75.6°F24.2°C 73.1°F22.8°C 92% Calm Calm -- 29.92 in1013.2 mb 0.00 in0.0 mm 0.00 in/hr0.0 mm/hr 0.00 in0.0 mm
02:30 AM 75.4°F24.1°C 72.9°F22.7°C 92% Calm Calm -- 29.92 in1013.2 mb 0.00 in0.0 mm 0.00 in/hr0.0 mm/hr 0.00 in0.0 mm
02:35 AM 75.4°F24.1°C 72.9°F22.7°C 92% Calm Calm -- 29.92 in1013.2 mb 0.00 in0.0 mm 0.00 in/hr0.0 mm/hr 0.00 in0.0 mm
02:40 AM 75.4°F24.1°C 72.9°F22.7°C 92% Calm Calm -- 29.92 in1013.2 mb 0.00 in0.0 mm 0.00 in/hr0.0 mm/hr 0.00 in0.0 mm
02:45 AM 75.4°F24.1°C 72.9°F22.7°C 92% Calm Calm -- 29.92 in1013.2 mb 0.00 in0.0 mm 0.00 in/hr0.0 mm/hr 0.00 in0.0 mm
02:50 AM 75.2°F24.0°C 72.8°F22.7°C 92% Calm Calm -- 29.92 in1013.2 mb 0.00 in0.0 mm 0.00 in/hr0.0 mm/hr 0.00 in0.0 mm
02:55 AM 75.2°F24.0°C 72.8°F22.7°C 92% Calm Calm -- 29.92 in1013.2 mb 0.00 in0.0 mm 0.00 in/hr0.0 mm/hr 0.00 in0.0 mm
03:00 AM 75.2°F24.0°C 72.8°F22.7°C 92% Calm Calm -- 29.92 in1013.2 mb 0.00 in0.0 mm 0.00 in/hr0.0 mm/hr 0.00 in0.0 mm
03:05 AM 75.0°F23.9°C 72.9°F22.7°C 93% Calm Calm -- 29.92 in1013.2 mb 0.00 in0.0 mm 0.00 in/hr0.0 mm/hr 0.00 in0.0 mm
03:10 AM 75.0°F23.9°C 72.9°F22.7°C 93% Calm Calm -- 29.92 in1013.2 mb 0.00 in0.0 mm 0.00 in/hr0.0 mm/hr 0.00 in0.0 mm
03:15 AM 75.0°F23.9°C 72.9°F22.7°C 93% Calm Calm -- 29.92 in1013.2 mb 0.00 in0.0 mm 0.00 in/hr0.0 mm/hr 0.00 in0.0 mm
03:20 AM 75.0°F23.9°C 72.9°F22.7°C 93% Calm Calm -- 29.92 in1013.2 mb 0.00 in0.0 mm 0.00 in/hr0.0 mm/hr 0.00 in0.0 mm
03:25 AM 75.0°F23.9°C 72.9°F22.7°C 93% Calm Calm -- 29.92 in1013.2 mb 0.00 in0.0 mm 0.00 in/hr0.0 mm/hr 0.00 in0.0 mm
03:30 AM 74.8°F23.8°C 72.7°F22.6°C 93% Calm Calm -- 29.92 in1013.2 mb 0.00 in0.0 mm 0.00 in/hr0.0 mm/hr 0.00 in0.0 mm
03:35 AM 74.8°F23.8°C 72.7°F22.6°C 93% Calm Calm -- 29.92 in1013.2 mb 0.00 in0.0 mm 0.00 in/hr0.0 mm/hr 0.00 in0.0 mm
03:40 AM 74.8°F23.8°C 72.7°F22.6°C 93% Calm Calm -- 29.92 in1013.2 mb 0.00 in0.0 mm 0.00 in/hr0.0 mm/hr 0.00 in0.0 mm
03:45 AM 74.8°F23.8°C 72.7°F22.6°C 93% Calm Calm -- 29.92 in1013.2 mb 0.00 in0.0 mm 0.00 in/hr0.0 mm/hr 0.00 in0.0 mm
03:50 AM 74.8°F23.8°C 72.7°F22.6°C 93% Calm Calm -- 29.92 in1013.2 mb 0.00 in0.0 mm 0.00 in/hr0.0 mm/hr 0.00 in0.0 mm
03:55 AM 74.8°F23.8°C 72.7°F22.6°C 93% Calm Calm -- 29.92 in1013.2 mb 0.00 in0.0 mm 0.00 in/hr0.0 mm/hr 0.00 in0.0 mm
04:00 AM 74.7°F23.7°C 72.9°F22.7°C 94% Calm Calm -- 29.92 in1013.2 mb 0.00 in0.0 mm 0.00 in/hr0.0 mm/hr 0.00 in0.0 mm
04:05 AM 74.7°F23.7°C 72.9°F22.7°C 94% Calm Calm -- 29.92 in1013.2 mb 0.00 in0.0 mm 0.00 in/hr0.0 mm/hr 0.00 in0.0 mm
04:10 AM 74.7°F23.7°C 72.9°F22.7°C 94% Calm Calm -- 29.92 in1013.2 mb 0.00 in0.0 mm 0.00 in/hr0.0 mm/hr 0.00 in0.0 mm
04:15 AM 74.8°F23.8°C 73.0°F22.8°C 94% Calm Calm -- 29.92 in1013.2 mb 0.00 in0.0 mm 0.00 in/hr0.0 mm/hr 0.00 in0.0 mm
04:20 AM 74.8°F23.8°C 73.0°F22.8°C 94% Calm Calm -- 29.92 in1013.2 mb 0.00 in0.0 mm 0.00 in/hr0.0 mm/hr 0.00 in0.0 mm
04:25 AM 74.8°F23.8°C 73.0°F22.8°C 94% Calm Calm -- 29.92 in1013.2 mb 0.00 in0.0 mm 0.00 in/hr0.0 mm/hr 0.00 in0.0 mm
04:30 AM 74.8°F23.8°C 73.0°F22.8°C 94% Calm Calm -- 29.92 in1013.2 mb 0.00 in0.0 mm 0.00 in/hr0.0 mm/hr 0.00 in0.0 mm
04:35 AM 74.8°F23.8°C 73.0°F22.8°C 94% Calm Calm -- 29.92 in1013.2 mb 0.00 in0.0 mm 0.00 in/hr0.0 mm/hr 0.00 in0.0 mm
04:40 AM 74.8°F23.8°C 73.0°F22.8°C 94% Calm Calm -- 29.92 in1013.2 mb 0.00 in0.0 mm 0.00 in/hr0.0 mm/hr 0.00 in0.0 mm
04:45 AM 74.8°F23.8°C 73.0°F22.8°C 94% Calm Calm -- 29.92 in1013.2 mb 0.00 in0.0 mm 0.00 in/hr0.0 mm/hr 0.00 in0.0 mm
04:50 AM 74.8°F23.8°C 73.0°F22.8°C 94% Calm Calm -- 29.92 in1013.2 mb 0.00 in0.0 mm 0.00 in/hr0.0 mm/hr 0.00 in0.0 mm
04:55 AM 74.7°F23.7°C 72.9°F22.7°C 94% Calm Calm -- 29.92 in1013.2 mb 0.00 in0.0 mm 0.00 in/hr0.0 mm/hr 0.00 in0.0 mm
05:00 AM 74.7°F23.7°C 72.9°F22.7°C 94% Calm Calm -- 29.92 in1013.2 mb 0.00 in0.0 mm 0.00 in/hr0.0 mm/hr 0.00 in0.0 mm
05:05 AM 74.7°F23.7°C 72.9°F22.7°C 94% Calm Calm -- 29.92 in1013.2 mb 0.00 in0.0 mm 0.00 in/hr0.0 mm/hr 0.00 in0.0 mm
05:10 AM 74.7°F23.7°C 72.9°F22.7°C 94% Calm Calm -- 29.92 in1013.2 mb 0.00 in0.0 mm 0.00 in/hr0.0 mm/hr 0.00 in0.0 mm
05:15 AM 74.7°F23.7°C 72.9°F22.7°C 94% Calm Calm -- 29.92 in1013.2 mb 0.00 in0.0 mm 0.00 in/hr0.0 mm/hr 0.00 in0.0 mm
05:20 AM 74.7°F23.7°C 72.9°F22.7°C 94% Calm Calm -- 29.92 in1013.2 mb 0.00 in0.0 mm 0.00 in/hr0.0 mm/hr 0.00 in0.0 mm
05:25 AM 74.7°F23.7°C 72.9°F22.7°C 94% Calm Calm -- 29.92 in1013.2 mb 0.00 in0.0 mm 0.00 in/hr0.0 mm/hr 0.00 in0.0 mm
05:30 AM 74.5°F23.6°C 72.7°F22.6°C 94% Calm Calm -- 29.92 in1013.2 mb 0.00 in0.0 mm 0.00 in/hr0.0 mm/hr 0.00 in0.0 mm
05:35 AM 74.5°F23.6°C 72.7°F22.6°C 94% Calm Calm -- 29.92 in1013.2 mb 0.00 in0.0 mm 0.00 in/hr0.0 mm/hr 0.00 in0.0 mm
05:40 AM 74.5°F23.6°C 72.7°F22.6°C 94% Calm Calm -- 29.92 in1013.2 mb 0.00 in0.0 mm 0.00 in/hr0.0 mm/hr 0.00 in0.0 mm
05:45 AM 74.5°F23.6°C 72.7°F22.6°C 94% Calm Calm -- 29.92 in1013.2 mb 0.00 in0.0 mm 0.00 in/hr0.0 mm/hr 0.00 in0.0 mm
05:50 AM 74.5°F23.6°C 72.7°F22.6°C 94% Calm Calm -- 29.92 in1013.2 mb 0.00 in0.0 mm 0.00 in/hr0.0 mm/hr 0.00 in0.0 mm
05:55 AM 74.3°F23.5°C 72.5°F22.5°C 94% Calm Calm -- 29.92 in1013.2 mb 0.00 in0.0 mm 0.00 in/hr0.0 mm/hr 0.00 in0.0 mm
06:00 AM 74.3°F23.5°C 72.5°F22.5°C 94% Calm Calm -- 29.92 in1013.2 mb 0.00 in0.0 mm 0.00 in/hr0.0 mm/hr 0.00 in0.0 mm
06:05 AM 74.3°F23.5°C 72.5°F22.5°C 94% Calm Calm -- 29.92 in1013.2 mb 0.00 in0.0 mm 0.00 in/hr0.0 mm/hr 0.00 in0.0 mm
06:10 AM 74.3°F23.5°C 72.5°F22.5°C 94% Calm Calm -- 29.92 in1013.2 mb 0.00 in0.0 mm 0.00 in/hr0.0 mm/hr 0.00 in0.0 mm
06:15 AM 74.3°F23.5°C 72.5°F22.5°C 94% Calm Calm -- 29.92 in1013.2 mb 0.00 in0.0 mm 0.00 in/hr0.0 mm/hr 0.00 in0.0 mm
06:20 AM 74.3°F23.5°C 72.8°F22.7°C 95% Calm Calm -- 29.92 in1013.2 mb 0.00 in0.0 mm 0.00 in/hr0.0 mm/hr 0.00 in0.0 mm
06:25 AM 74.3°F23.5°C 72.8°F22.7°C 95% Calm Calm -- 29.92 in1013.2 mb 0.00 in0.0 mm 0.00 in/hr0.0 mm/hr 0.00 in0.0 mm
06:30 AM 74.5°F23.6°C 73.0°F22.8°C 95% Calm Calm -- 29.92 in1013.2 mb 0.00 in0.0 mm 0.00 in/hr0.0 mm/hr 0.00 in0.0 mm
06:35 AM 74.5°F23.6°C 73.0°F22.8°C 95% Calm Calm -- 29.92 in1013.2 mb 0.00 in0.0 mm 0.00 in/hr0.0 mm/hr 0.00 in0.0 mm
06:40 AM 74.5°F23.6°C 73.0°F22.8°C 95% Calm Calm -- 29.92 in1013.2 mb 0.00 in0.0 mm 0.00 in/hr0.0 mm/hr 0.00 in0.0 mm
06:45 AM 74.5°F23.6°C 73.0°F22.8°C 95% Calm Calm -- 29.92 in1013.2 mb 0.00 in0.0 mm 0.00 in/hr0.0 mm/hr 0.00 in0.0 mm
06:50 AM 74.5°F23.6°C 73.0°F22.8°C 95% Calm Calm -- 29.92 in1013.2 mb 0.00 in0.0 mm 0.00 in/hr0.0 mm/hr 0.00 in0.0 mm
06:55 AM 74.5°F23.6°C 73.0°F22.8°C 95% Calm Calm -- 29.92 in1013.2 mb 0.00 in0.0 mm 0.00 in/hr0.0 mm/hr 0.00 in0.0 mm
07:00 AM 74.7°F23.7°C 73.2°F22.9°C 95% Calm Calm 1.6 mph2.6 kmh 29.92 in1013.2 mb 0.00 in0.0 mm 0.00 in/hr0.0 mm/hr 0.00 in0.0 mm
07:05 AM 74.7°F23.7°C 73.2°F22.9°C 95% Calm Calm 1.6 mph2.6 kmh 29.92 in1013.2 mb 0.00 in0.0 mm 0.00 in/hr0.0 mm/hr 0.00 in0.0 mm
07:10 AM 74.8°F23.8°C 73.4°F23.0°C 95% Calm Calm -- 29.92 in1013.2 mb 0.00 in0.0 mm 0.00 in/hr0.0 mm/hr 0.00 in0.0 mm
07:15 AM 74.8°F23.8°C 73.4°F23.0°C 95% Calm Calm -- 29.92 in1013.2 mb 0.00 in0.0 mm 0.00 in/hr0.0 mm/hr 0.00 in0.0 mm
07:20 AM 74.8°F23.8°C 73.4°F23.0°C 95% Calm Calm -- 29.92 in1013.2 mb 0.00 in0.0 mm 0.00 in/hr0.0 mm/hr 0.00 in0.0 mm
07:25 AM 74.8°F23.8°C 73.4°F23.0°C 95% Calm Calm -- 29.92 in1013.2 mb 0.00 in0.0 mm 0.00 in/hr0.0 mm/hr 0.00 in0.0 mm
07:30 AM 74.8°F23.8°C 73.4°F23.0°C 95% Calm Calm -- 29.92 in1013.2 mb 0.00 in0.0 mm 0.00 in/hr0.0 mm/hr 0.00 in0.0 mm
07:35 AM 75.2°F24.0°C 73.4°F23.0°C 94% Calm Calm -- 29.92 in1013.2 mb 0.00 in0.0 mm 0.00 in/hr0.0 mm/hr 0.00 in0.0 mm
07:40 AM 75.6°F24.2°C 73.8°F23.2°C 94% Calm Calm -- 29.92 in1013.2 mb 0.00 in0.0 mm 0.00 in/hr0.0 mm/hr 0.00 in0.0 mm
07:45 AM 76.1°F24.5°C 74.3°F23.5°C 94% Calm Calm -- 29.92 in1013.2 mb 0.00 in0.0 mm 0.00 in/hr0.0 mm/hr 0.00 in0.0 mm
07:50 AM 76.6°F24.8°C 74.8°F23.8°C 94% Calm Calm -- 29.92 in1013.2 mb 0.00 in0.0 mm 0.00 in/hr0.0 mm/hr 0.00 in0.0 mm
07:55 AM 77.0°F25.0°C 75.2°F24.0°C 94% Calm Calm -- 29.92 in1013.2 mb 0.00 in0.0 mm 0.00 in/hr0.0 mm/hr 0.00 in0.0 mm
08:00 AM 77.7°F25.4°C 75.9°F24.4°C 94% Calm Calm -- 29.92 in1013.2 mb 0.00 in0.0 mm 0.00 in/hr0.0 mm/hr 0.00 in0.0 mm
08:05 AM 78.4°F25.8°C 76.6°F24.8°C 94% Calm Calm -- 29.92 in1013.2 mb 0.00 in0.0 mm 0.00 in/hr0.0 mm/hr 0.00 in0.0 mm
08:10 AM 79.0°F26.1°C 76.8°F24.9°C 93% Calm Calm -- 29.92 in1013.2 mb 0.00 in0.0 mm 0.00 in/hr0.0 mm/hr 0.00 in0.0 mm
08:15 AM 79.9°F26.6°C 77.7°F25.4°C 93% Calm Calm 2.2 mph3.5 kmh 29.92 in1013.2 mb 0.00 in0.0 mm 0.00 in/hr0.0 mm/hr 0.00 in0.0 mm
08:20 AM 80.1°F26.7°C 77.9°F25.5°C 93% 1.6 mph NE2.6 kmh NE 4.5 mph7.2 kmh 29.92 in1013.2 mb 0.00 in0.0 mm 0.00 in/hr0.0 mm/hr 0.00 in0.0 mm
08:25 AM 80.6°F27.0°C 77.8°F25.4°C 91% Calm Calm 4.5 mph7.2 kmh 29.92 in1013.2 mb 0.00 in0.0 mm 0.00 in/hr0.0 mm/hr 0.00 in0.0 mm
08:30 AM 81.1°F27.3°C 78.0°F25.6°C 90% 1.6 mph E2.6 kmh E 3.8 mph6.1 kmh 29.92 in1013.2 mb 0.00 in0.0 mm 0.00 in/hr0.0 mm/hr 0.00 in0.0 mm
08:35 AM 81.7°F27.6°C 77.8°F25.4°C 88% 0.7 mph ESE1.1 kmh ESE 3.8 mph6.1 kmh 29.92 in1013.2 mb 0.00 in0.0 mm 0.00 in/hr0.0 mm/hr 0.00 in0.0 mm
08:40 AM 82.6°F28.1°C 78.4°F25.8°C 87% 0.7 mph ESE1.1 kmh ESE 3.1 mph5.0 kmh 29.92 in1013.2 mb 0.00 in0.0 mm 0.00 in/hr0.0 mm/hr 0.00 in0.0 mm
08:45 AM 83.1°F28.4°C 78.2°F25.7°C 85% Calm Calm 3.1 mph5.0 kmh 29.92 in1013.2 mb 0.00 in0.0 mm 0.00 in/hr0.0 mm/hr 0.00 in0.0 mm
08:50 AM 83.7°F28.7°C 78.4°F25.8°C 84% 1.6 mph E2.6 kmh E 3.8 mph6.1 kmh 29.92 in1013.2 mb 0.00 in0.0 mm 0.00 in/hr0.0 mm/hr 0.00 in0.0 mm
08:55 AM 84.0°F28.9°C 77.6°F25.3°C 81% 1.6 mph E2.6 kmh E 3.8 mph6.1 kmh 29.92 in1013.2 mb 0.00 in0.0 mm 0.00 in/hr0.0 mm/hr 0.00 in0.0 mm
09:00 AM 84.4°F29.1°C 77.2°F25.1°C 79% 3.1 mph E5.0 kmh E 4.5 mph7.2 kmh 29.92 in1013.2 mb 0.00 in0.0 mm 0.00 in/hr0.0 mm/hr 0.00 in0.0 mm
09:05 AM 84.4°F29.1°C 76.8°F24.9°C 78% 1.6 mph E2.6 kmh E 4.5 mph7.2 kmh 29.92 in1013.2 mb 0.00 in0.0 mm 0.00 in/hr0.0 mm/hr 0.00 in0.0 mm
09:10 AM 84.7°F29.3°C 77.2°F25.1°C 78% 0.7 mph E1.1 kmh E 4.5 mph7.2 kmh 29.92 in1013.2 mb 0.00 in0.0 mm 0.00 in/hr0.0 mm/hr 0.00 in0.0 mm
09:15 AM 85.3°F29.6°C 77.3°F25.2°C 77% 2.2 mph E3.5 kmh E 6.0 mph9.7 kmh 29.92 in1013.2 mb 0.00 in0.0 mm 0.00 in/hr0.0 mm/hr 0.00 in0.0 mm
09:20 AM 85.3°F29.6°C 76.9°F24.9°C 76% 2.2 mph E3.5 kmh E 6.0 mph9.7 kmh 29.92 in1013.2 mb 0.00 in0.0 mm 0.00 in/hr0.0 mm/hr 0.00 in0.0 mm
09:25 AM 85.8°F29.9°C 76.6°F24.8°C 74% 1.6 mph E2.6 kmh E 3.8 mph6.1 kmh 29.92 in1013.2 mb 0.00 in0.0 mm 0.00 in/hr0.0 mm/hr 0.00 in0.0 mm
09:30 AM 86.4°F30.2°C 76.3°F24.6°C 72% 2.2 mph E3.5 kmh E 4.5 mph7.2 kmh 29.92 in1013.2 mb 0.00 in0.0 mm 0.00 in/hr0.0 mm/hr 0.00 in0.0 mm
09:35 AM 86.7°F30.4°C 76.7°F24.8°C 72% 2.2 mph ENE3.5 kmh ENE 4.5 mph7.2 kmh 29.92 in1013.2 mb 0.00 in0.0 mm 0.00 in/hr0.0 mm/hr 0.00 in0.0 mm
09:40 AM 86.5°F30.3°C 75.7°F24.3°C 70% 4.5 mph ENE7.2 kmh ENE 6.0 mph9.7 kmh 29.92 in1013.2 mb 0.00 in0.0 mm 0.00 in/hr0.0 mm/hr 0.00 in0.0 mm
09:45 AM 86.5°F30.3°C 75.7°F24.3°C 70% 2.2 mph E3.5 kmh E 6.0 mph9.7 kmh 29.92 in1013.2 mb 0.00 in0.0 mm 0.00 in/hr0.0 mm/hr 0.00 in0.0 mm
09:50 AM 87.1°F30.6°C 76.2°F24.6°C 70% 4.5 mph E7.2 kmh E 6.0 mph9.7 kmh 29.92 in1013.2 mb 0.00 in0.0 mm 0.00 in/hr0.0 mm/hr 0.00 in0.0 mm
09:55 AM 86.9°F30.5°C 75.1°F23.9°C 68% 2.2 mph E3.5 kmh E 6.9 mph11.1 kmh 29.92 in1013.2 mb 0.00 in0.0 mm 0.00 in/hr0.0 mm/hr 0.00 in0.0 mm
10:00 AM 87.3°F30.7°C 75.0°F23.9°C 67% 3.8 mph E6.1 kmh E 6.9 mph11.1 kmh 29.92 in1013.2 mb 0.00 in0.0 mm 0.00 in/hr0.0 mm/hr 0.00 in0.0 mm
10:05 AM 87.6°F30.9°C 74.9°F23.8°C 66% 4.5 mph E7.2 kmh E 6.9 mph11.1 kmh 29.92 in1013.2 mb 0.00 in0.0 mm 0.00 in/hr0.0 mm/hr 0.00 in0.0 mm
10:10 AM 87.6°F30.9°C 73.5°F23.1°C 63% 3.8 mph E6.1 kmh E 6.9 mph11.1 kmh 29.92 in1013.2 mb 0.00 in0.0 mm 0.00 in/hr0.0 mm/hr 0.00 in0.0 mm
10:15 AM 87.6°F30.9°C 74.0°F23.3°C 64% 4.5 mph E7.2 kmh E 8.3 mph13.4 kmh 29.92 in1013.2 mb 0.00 in0.0 mm 0.00 in/hr0.0 mm/hr 0.00 in0.0 mm
10:20 AM 88.0°F31.1°C 73.9°F23.3°C 63% 4.5 mph E7.2 kmh E 8.3 mph13.4 kmh 29.92 in1013.2 mb 0.00 in0.0 mm 0.00 in/hr0.0 mm/hr 0.00 in0.0 mm
10:25 AM 88.0°F31.1°C 74.3°F23.5°C 64% 7.6 mph E12.2 kmh E 9.8 mph15.8 kmh 29.92 in1013.2 mb 0.00 in0.0 mm 0.00 in/hr0.0 mm/hr 0.00 in0.0 mm
10:30 AM 87.8°F31.0°C 73.2°F22.9°C 62% 6.0 mph ESE9.7 kmh ESE 9.8 mph15.8 kmh 29.92 in1013.2 mb 0.00 in0.0 mm 0.00 in/hr0.0 mm/hr 0.00 in0.0 mm
10:35 AM 88.0°F31.1°C 74.3°F23.5°C 64% 5.4 mph ESE8.7 kmh ESE 9.8 mph15.8 kmh 29.92 in1013.2 mb 0.00 in0.0 mm 0.00 in/hr0.0 mm/hr 0.00 in0.0 mm
10:40 AM 88.5°F31.4°C 74.9°F23.8°C 64% 3.1 mph ESE5.0 kmh ESE 7.6 mph12.2 kmh 29.92 in1013.2 mb 0.00 in0.0 mm 0.00 in/hr0.0 mm/hr 0.00 in0.0 mm
10:45 AM 88.7°F31.5°C 74.6°F23.7°C 63% 4.5 mph E7.2 kmh E 8.3 mph13.4 kmh 29.92 in1013.2 mb 0.00 in0.0 mm 0.00 in/hr0.0 mm/hr 0.00 in0.0 mm
10:50 AM 88.7°F31.5°C 75.0°F23.9°C 64% 2.2 mph E3.5 kmh E 10.7 mph17.2 kmh 29.92 in1013.2 mb 0.00 in0.0 mm 0.00 in/hr0.0 mm/hr 0.00 in0.0 mm
10:55 AM 88.9°F31.6°C 74.7°F23.7°C 63% 5.4 mph E8.7 kmh E 10.7 mph17.2 kmh 29.92 in1013.2 mb 0.00 in0.0 mm 0.00 in/hr0.0 mm/hr 0.00 in0.0 mm
11:00 AM 88.9°F31.6°C 74.2°F23.4°C 62% 4.5 mph SE7.2 kmh SE 7.6 mph12.2 kmh 29.92 in1013.2 mb 0.00 in0.0 mm 0.00 in/hr0.0 mm/hr 0.00 in0.0 mm
11:05 AM 88.9°F31.6°C 73.8°F23.2°C 61% 4.5 mph SE7.2 kmh SE 7.6 mph12.2 kmh 29.92 in1013.2 mb 0.00 in0.0 mm 0.00 in/hr0.0 mm/hr 0.00 in0.0 mm
11:10 AM 88.9°F31.6°C 73.3°F22.9°C 60% 3.1 mph ESE5.0 kmh ESE 8.3 mph13.4 kmh 29.92 in1013.2 mb 0.00 in0.0 mm 0.00 in/hr0.0 mm/hr 0.00 in0.0 mm
11:15 AM 88.9°F31.6°C 73.8°F23.2°C 61% 4.5 mph ESE7.2 kmh ESE 8.3 mph13.4 kmh 29.92 in1013.2 mb 0.00 in0.0 mm 0.00 in/hr0.0 mm/hr 0.00 in0.0 mm
11:20 AM 89.2°F31.8°C 73.1°F22.8°C 59% 6.0 mph E9.7 kmh E 10.7 mph17.2 kmh 29.92 in1013.2 mb 0.00 in0.0 mm 0.00 in/hr0.0 mm/hr 0.00 in0.0 mm
11:25 AM 88.9°F31.6°C 72.3°F22.4°C 58% 5.4 mph E8.7 kmh E 10.7 mph17.2 kmh 29.92 in1013.2 mb 0.00 in0.0 mm 0.00 in/hr0.0 mm/hr 0.00 in0.0 mm
11:30 AM 89.4°F31.9°C 73.3°F22.9°C 59% 7.6 mph ESE12.2 kmh ESE 9.8 mph15.8 kmh 29.92 in1013.2 mb 0.00 in0.0 mm 0.00 in/hr0.0 mm/hr 0.00 in0.0 mm
11:35 AM 90.0°F32.2°C 72.2°F22.3°C 56% 4.5 mph SE7.2 kmh SE 9.8 mph15.8 kmh 29.92 in1013.2 mb 0.00 in0.0 mm 0.00 in/hr0.0 mm/hr 0.00 in0.0 mm
11:40 AM 90.1°F32.3°C 73.4°F23.0°C 58% 2.2 mph ESE3.5 kmh ESE 9.8 mph15.8 kmh 29.92 in1013.2 mb 0.00 in0.0 mm 0.00 in/hr0.0 mm/hr 0.00 in0.0 mm
11:45 AM 90.3°F32.4°C 73.1°F22.8°C 57% 4.5 mph E7.2 kmh E 9.8 mph15.8 kmh 29.92 in1013.2 mb 0.00 in0.0 mm 0.00 in/hr0.0 mm/hr 0.00 in0.0 mm
11:50 AM 90.5°F32.5°C 73.8°F23.2°C 58% 3.1 mph E5.0 kmh E 9.8 mph15.8 kmh 29.92 in1013.2 mb 0.00 in0.0 mm 0.00 in/hr0.0 mm/hr 0.00 in0.0 mm
11:55 AM 90.5°F32.5°C 73.3°F22.9°C 57% 3.1 mph NE5.0 kmh NE 9.8 mph15.8 kmh 29.92 in1013.2 mb 0.00 in0.0 mm 0.00 in/hr0.0 mm/hr 0.00 in0.0 mm
12:00 PM 90.9°F32.7°C 73.6°F23.1°C 57% 2.2 mph E3.5 kmh E 9.2 mph14.8 kmh 29.92 in1013.2 mb 0.00 in0.0 mm 0.00 in/hr0.0 mm/hr 0.00 in0.0 mm
12:05 PM 91.0°F32.8°C 73.8°F23.2°C 57% 2.2 mph E3.5 kmh E 7.6 mph12.2 kmh 29.92 in1013.2 mb 0.00 in0.0 mm 0.00 in/hr0.0 mm/hr 0.00 in0.0 mm
12:10 PM 90.9°F32.7°C 74.1°F23.4°C 58% 4.5 mph E7.2 kmh E 8.3 mph13.4 kmh 29.92 in1013.2 mb 0.00 in0.0 mm 0.00 in/hr0.0 mm/hr 0.00 in0.0 mm
12:15 PM 91.4°F33.0°C 74.1°F23.4°C 57% 7.6 mph E12.2 kmh E 9.8 mph15.8 kmh 29.92 in1013.2 mb 0.00 in0.0 mm 0.00 in/hr0.0 mm/hr 0.00 in0.0 mm
12:20 PM 91.4°F33.0°C 73.0°F22.8°C 55% 6.0 mph E9.7 kmh E 9.8 mph15.8 kmh 29.92 in1013.2 mb 0.00 in0.0 mm 0.00 in/hr0.0 mm/hr 0.00 in0.0 mm
12:25 PM 91.0°F32.8°C 73.2°F22.9°C 56% 3.1 mph E5.0 kmh E 9.8 mph15.8 kmh 29.92 in1013.2 mb 0.00 in0.0 mm 0.00 in/hr0.0 mm/hr 0.00 in0.0 mm
12:30 PM 90.9°F32.7°C 73.1°F22.8°C 56% 3.8 mph E6.1 kmh E 8.3 mph13.4 kmh 29.92 in1013.2 mb 0.00 in0.0 mm 0.00 in/hr0.0 mm/hr 0.00 in0.0 mm
12:35 PM 91.2°F32.9°C 74.5°F23.6°C 58% 4.5 mph E7.2 kmh E 8.3 mph13.4 kmh 29.92 in1013.2 mb 0.00 in0.0 mm 0.00 in/hr0.0 mm/hr 0.00 in0.0 mm
12:40 PM 91.8°F33.2°C 72.8°F22.7°C 54% 3.8 mph ENE6.1 kmh ENE 9.8 mph15.8 kmh 29.92 in1013.2 mb 0.00 in0.0 mm 0.00 in/hr0.0 mm/hr 0.00 in0.0 mm
12:45 PM 91.9°F33.3°C 72.4°F22.4°C 53% 6.0 mph ENE9.7 kmh ENE 9.8 mph15.8 kmh 29.92 in1013.2 mb 0.00 in0.0 mm 0.00 in/hr0.0 mm/hr 0.00 in0.0 mm
12:50 PM 91.2°F32.9°C 71.2°F21.8°C 52% 4.5 mph ENE7.2 kmh ENE 9.8 mph15.8 kmh 29.92 in1013.2 mb 0.00 in0.0 mm 0.00 in/hr0.0 mm/hr 0.00 in0.0 mm
12:55 PM 91.9°F33.3°C 71.9°F22.2°C 52% 2.2 mph E3.5 kmh E 9.8 mph15.8 kmh 29.92 in1013.2 mb 0.00 in0.0 mm 0.00 in/hr0.0 mm/hr 0.00 in0.0 mm
01:00 PM 92.3°F33.5°C 72.2°F22.3°C 52% 6.0 mph E9.7 kmh E 9.2 mph14.8 kmh 29.92 in1013.2 mb 0.00 in0.0 mm 0.00 in/hr0.0 mm/hr 0.00 in0.0 mm
01:05 PM 91.9°F33.3°C 71.3°F21.8°C 51% 5.4 mph E8.7 kmh E 9.8 mph15.8 kmh 29.92 in1013.2 mb 0.00 in0.0 mm 0.00 in/hr0.0 mm/hr 0.00 in0.0 mm
01:10 PM 91.9°F33.3°C 70.7°F21.5°C 50% 6.0 mph E9.7 kmh E 14.5 mph23.3 kmh 29.92 in1013.2 mb 0.00 in0.0 mm 0.00 in/hr0.0 mm/hr 0.00 in0.0 mm
01:15 PM 92.1°F33.4°C 70.9°F21.6°C 50% 4.5 mph ENE7.2 kmh ENE 14.5 mph23.3 kmh 29.92 in1013.2 mb 0.00 in0.0 mm 0.00 in/hr0.0 mm/hr 0.00 in0.0 mm
01:20 PM 92.1°F33.4°C 70.9°F21.6°C 50% 5.4 mph NNE8.7 kmh NNE 9.2 mph14.8 kmh 29.92 in1013.2 mb 0.00 in0.0 mm 0.00 in/hr0.0 mm/hr 0.00 in0.0 mm
01:25 PM 92.3°F33.5°C 71.0°F21.7°C 50% 3.1 mph NE5.0 kmh NE 9.2 mph14.8 kmh 29.92 in1013.2 mb 0.00 in0.0 mm 0.00 in/hr0.0 mm/hr 0.00 in0.0 mm
01:30 PM 92.5°F33.6°C 70.6°F21.4°C 49% 2.2 mph ENE3.5 kmh ENE 8.3 mph13.4 kmh 29.92 in1013.2 mb 0.00 in0.0 mm 0.00 in/hr0.0 mm/hr 0.00 in0.0 mm
01:35 PM 92.3°F33.5°C 71.6°F22.0°C 51% 0.7 mph NNE1.1 kmh NNE 5.4 mph8.7 kmh 29.92 in1013.2 mb 0.00 in0.0 mm 0.00 in/hr0.0 mm/hr 0.00 in0.0 mm
01:40 PM 91.8°F33.2°C 70.5°F21.4°C 50% 3.1 mph NE5.0 kmh NE 6.0 mph9.7 kmh 29.92 in1013.2 mb 0.00 in0.0 mm 0.00 in/hr0.0 mm/hr 0.00 in0.0 mm
01:45 PM 92.3°F33.5°C 72.2°F22.3°C 52% 3.8 mph E6.1 kmh E 6.0 mph9.7 kmh 29.92 in1013.2 mb 0.00 in0.0 mm 0.00 in/hr0.0 mm/hr 0.00 in0.0 mm
01:50 PM 93.4°F34.1°C 70.8°F21.6°C 48% 3.1 mph E5.0 kmh E 6.0 mph9.7 kmh 29.92 in1013.2 mb 0.00 in0.0 mm 0.00 in/hr0.0 mm/hr 0.00 in0.0 mm
01:55 PM 93.7°F34.3°C 71.2°F21.8°C 48% 2.2 mph ENE3.5 kmh ENE 6.0 mph9.7 kmh 29.92 in1013.2 mb 0.00 in0.0 mm 0.00 in/hr0.0 mm/hr 0.00 in0.0 mm
02:00 PM 93.2°F34.0°C 70.7°F21.5°C 48% 3.1 mph NE5.0 kmh NE 6.0 mph9.7 kmh 29.92 in1013.2 mb 0.00 in0.0 mm 0.00 in/hr0.0 mm/hr 0.00 in0.0 mm
02:05 PM 93.2°F34.0°C 70.7°F21.5°C 48% 3.1 mph NE5.0 kmh NE 6.0 mph9.7 kmh 29.92 in1013.2 mb 0.00 in0.0 mm 0.00 in/hr0.0 mm/hr 0.00 in0.0 mm
02:10 PM 93.7°F34.3°C 69.9°F21.1°C 46% 3.8 mph NE6.1 kmh NE 9.2 mph14.8 kmh 29.92 in1013.2 mb 0.00 in0.0 mm 0.00 in/hr0.0 mm/hr 0.00 in0.0 mm
02:15 PM 92.8°F33.8°C 70.3°F21.3°C 48% 4.5 mph NE7.2 kmh NE 9.2 mph14.8 kmh 29.92 in1013.2 mb 0.00 in0.0 mm 0.00 in/hr0.0 mm/hr 0.00 in0.0 mm
02:20 PM 92.3°F33.5°C 72.2°F22.3°C 52% 7.6 mph ENE12.2 kmh ENE 11.4 mph18.3 kmh 29.92 in1013.2 mb 0.00 in0.0 mm 0.00 in/hr0.0 mm/hr 0.00 in0.0 mm
02:25 PM 92.3°F33.5°C 72.2°F22.3°C 52% 5.4 mph NE8.7 kmh NE 11.4 mph18.3 kmh 29.92 in1013.2 mb 0.00 in0.0 mm 0.00 in/hr0.0 mm/hr 0.00 in0.0 mm
02:30 PM 92.7°F33.7°C 72.5°F22.5°C 52% 5.4 mph NE8.7 kmh NE 11.4 mph18.3 kmh 29.92 in1013.2 mb 0.00 in0.0 mm 0.00 in/hr0.0 mm/hr 0.00 in0.0 mm
02:35 PM 92.8°F33.8°C 70.9°F21.6°C 49% 5.4 mph ENE8.7 kmh ENE 10.7 mph17.2 kmh 29.92 in1013.2 mb 0.00 in0.0 mm 0.00 in/hr0.0 mm/hr 0.00 in0.0 mm
02:40 PM 92.8°F33.8°C 70.9°F21.6°C 49% 6.0 mph ENE9.7 kmh ENE 11.4 mph18.3 kmh 29.92 in1013.2 mb 0.00 in0.0 mm 0.00 in/hr0.0 mm/hr 0.00 in0.0 mm
02:45 PM 93.6°F34.2°C 71.6°F22.0°C 49% 4.5 mph E7.2 kmh E 11.4 mph18.3 kmh 29.92 in1013.2 mb 0.00 in0.0 mm 0.00 in/hr0.0 mm/hr 0.00 in0.0 mm
02:50 PM 93.4°F34.1°C 70.2°F21.2°C 47% 5.4 mph E8.7 kmh E 10.7 mph17.2 kmh 29.92 in1013.2 mb 0.00 in0.0 mm 0.00 in/hr0.0 mm/hr 0.00 in0.0 mm
02:55 PM 91.2°F32.9°C 72.9°F22.7°C 55% 6.9 mph SE11.1 kmh SE 13.6 mph21.9 kmh 29.92 in1013.2 mb 0.00 in0.0 mm 0.00 in/hr0.0 mm/hr 0.00 in0.0 mm
03:00 PM 88.3°F31.3°C 72.8°F22.7°C 60% 3.1 mph SE5.0 kmh SE 13.6 mph21.9 kmh 29.92 in1013.2 mb 0.00 in0.0 mm 0.00 in/hr0.0 mm/hr 0.00 in0.0 mm
03:05 PM 87.6°F30.9°C 73.1°F22.8°C 62% 4.5 mph SE7.2 kmh SE 7.6 mph12.2 kmh 29.92 in1013.2 mb 0.00 in0.0 mm 0.00 in/hr0.0 mm/hr 0.00 in0.0 mm
03:10 PM 86.7°F30.4°C 72.2°F22.3°C 62% 6.0 mph SE9.7 kmh SE 13.6 mph21.9 kmh 29.92 in1013.2 mb 0.00 in0.0 mm 0.00 in/hr0.0 mm/hr 0.00 in0.0 mm
03:15 PM 86.2°F30.1°C 71.7°F22.1°C 62% 4.5 mph SE7.2 kmh SE 13.6 mph21.9 kmh 29.92 in1013.2 mb 0.00 in0.0 mm 0.00 in/hr0.0 mm/hr 0.00 in0.0 mm
03:20 PM 85.3°F29.6°C 73.1°F22.8°C 67% 9.2 mph ESE14.8 kmh ESE 11.4 mph18.3 kmh 29.92 in1013.2 mb 0.00 in0.0 mm 0.00 in/hr0.0 mm/hr 0.00 in0.0 mm
03:25 PM 83.7°F28.7°C 73.3°F22.9°C 71% 6.0 mph SE9.7 kmh SE 11.4 mph18.3 kmh 29.92 in1013.2 mb 0.00 in0.0 mm 0.00 in/hr0.0 mm/hr 0.00 in0.0 mm
03:30 PM 82.9°F28.3°C 73.9°F23.3°C 74% 3.1 mph SSE5.0 kmh SSE 11.4 mph18.3 kmh 29.92 in1013.2 mb 0.01 in0.3 mm 0.12 in/hr3.0 mm/hr 0.01 in0.3 mm
03:35 PM 82.0°F27.8°C 73.8°F23.2°C 76% 3.8 mph S6.1 kmh S 6.9 mph11.1 kmh 29.92 in1013.2 mb 0.05 in1.3 mm 0.48 in/hr12.2 mm/hr 0.05 in1.3 mm
03:40 PM 81.7°F27.6°C 73.4°F23.0°C 76% Calm Calm 6.0 mph9.7 kmh 29.92 in1013.2 mb 0.05 in1.3 mm 0.00 in/hr0.0 mm/hr 0.05 in1.3 mm
03:45 PM 81.9°F27.7°C 74.4°F23.6°C 78% Calm Calm 6.0 mph9.7 kmh 29.92 in1013.2 mb 0.05 in1.3 mm 0.00 in/hr0.0 mm/hr 0.05 in1.3 mm
03:50 PM 83.5°F28.6°C 76.3°F24.6°C 79% Calm Calm 1.6 mph2.6 kmh 29.92 in1013.2 mb 0.05 in1.3 mm 0.00 in/hr0.0 mm/hr 0.05 in1.3 mm
03:55 PM 85.5°F29.7°C 77.9°F25.5°C 78% 0.7 mph SSE1.1 kmh SSE 3.1 mph5.0 kmh 29.92 in1013.2 mb 0.05 in1.3 mm 0.00 in/hr0.0 mm/hr 0.05 in1.3 mm
04:00 PM 87.4°F30.8°C 78.6°F25.9°C 75% 2.2 mph E3.5 kmh E 3.1 mph5.0 kmh 29.92 in1013.2 mb 0.05 in1.3 mm 0.00 in/hr0.0 mm/hr 0.05 in1.3 mm
04:05 PM 87.4°F30.8°C 78.6°F25.9°C 75% 2.2 mph NE3.5 kmh NE 3.1 mph5.0 kmh 29.92 in1013.2 mb 0.05 in1.3 mm 0.00 in/hr0.0 mm/hr 0.05 in1.3 mm
04:10 PM 89.4°F31.9°C 75.2°F24.0°C 63% 1.6 mph NE2.6 kmh NE 3.1 mph5.0 kmh 29.92 in1013.2 mb 0.05 in1.3 mm 0.00 in/hr0.0 mm/hr 0.05 in1.3 mm
04:15 PM 90.1°F32.3°C 74.0°F23.3°C 59% 2.2 mph E3.5 kmh E 5.4 mph8.7 kmh 29.92 in1013.2 mb 0.05 in1.3 mm 0.00 in/hr0.0 mm/hr 0.05 in1.3 mm
04:20 PM 90.7°F32.6°C 74.5°F23.6°C 59% 1.6 mph E2.6 kmh E 5.4 mph8.7 kmh 29.92 in1013.2 mb 0.05 in1.3 mm 0.00 in/hr0.0 mm/hr 0.05 in1.3 mm
04:25 PM 91.0°F32.8°C 74.3°F23.5°C 58% 2.2 mph E3.5 kmh E 3.8 mph6.1 kmh 29.92 in1013.2 mb 0.05 in1.3 mm 0.00 in/hr0.0 mm/hr 0.05 in1.3 mm
04:30 PM 91.4°F33.0°C 74.1°F23.4°C 57% 1.6 mph E2.6 kmh E 3.8 mph6.1 kmh 29.92 in1013.2 mb 0.04 in1.0 mm 0.00 in/hr0.0 mm/hr 0.05 in1.3 mm
04:35 PM 91.8°F33.2°C 73.4°F23.0°C 55% 3.1 mph ESE5.0 kmh ESE 6.9 mph11.1 kmh 29.92 in1013.2 mb 0.00 in0.0 mm 0.00 in/hr0.0 mm/hr 0.05 in1.3 mm
04:40 PM 91.6°F33.1°C 73.2°F22.9°C 55% 7.6 mph E12.2 kmh E 11.4 mph18.3 kmh 29.92 in1013.2 mb 0.00 in0.0 mm 0.00 in/hr0.0 mm/hr 0.05 in1.3 mm
04:45 PM 90.9°F32.7°C 74.1°F23.4°C 58% 2.2 mph NE3.5 kmh NE 11.4 mph18.3 kmh 29.92 in1013.2 mb 0.00 in0.0 mm 0.00 in/hr0.0 mm/hr 0.05 in1.3 mm
04:50 PM 90.9°F32.7°C 74.1°F23.4°C 58% 4.5 mph NE7.2 kmh NE 11.4 mph18.3 kmh 29.92 in1013.2 mb 0.00 in0.0 mm 0.00 in/hr0.0 mm/hr 0.05 in1.3 mm
04:55 PM 90.3°F32.4°C 72.0°F22.2°C 55% 3.8 mph NE6.1 kmh NE 7.6 mph12.2 kmh 29.92 in1013.2 mb 0.00 in0.0 mm 0.00 in/hr0.0 mm/hr 0.05 in1.3 mm
05:00 PM 90.3°F32.4°C 71.5°F21.9°C 54% 3.8 mph NE6.1 kmh NE 7.6 mph12.2 kmh 29.92 in1013.2 mb 0.00 in0.0 mm 0.00 in/hr0.0 mm/hr 0.05 in1.3 mm
05:05 PM 90.3°F32.4°C 70.9°F21.6°C 53% 0.7 mph NE1.1 kmh NE 7.6 mph12.2 kmh 29.92 in1013.2 mb 0.00 in0.0 mm 0.00 in/hr0.0 mm/hr 0.05 in1.3 mm
05:10 PM 90.5°F32.5°C 71.7°F22.1°C 54% 3.1 mph NE5.0 kmh NE 6.0 mph9.7 kmh 29.92 in1013.2 mb 0.00 in0.0 mm 0.00 in/hr0.0 mm/hr 0.05 in1.3 mm
05:15 PM 90.5°F32.5°C 72.2°F22.3°C 55% 3.8 mph NE6.1 kmh NE 8.3 mph13.4 kmh 29.92 in1013.2 mb 0.00 in0.0 mm 0.00 in/hr0.0 mm/hr 0.05 in1.3 mm
05:20 PM 90.5°F32.5°C 72.7°F22.6°C 56% 3.1 mph NE5.0 kmh NE 8.3 mph13.4 kmh 29.92 in1013.2 mb 0.00 in0.0 mm 0.00 in/hr0.0 mm/hr 0.05 in1.3 mm
05:25 PM 90.7°F32.6°C 73.4°F23.0°C 57% 2.2 mph NE3.5 kmh NE 6.9 mph11.1 kmh 29.92 in1013.2 mb 0.00 in0.0 mm 0.00 in/hr0.0 mm/hr 0.05 in1.3 mm
05:30 PM 90.3°F32.4°C 73.1°F22.8°C 57% 4.5 mph NE7.2 kmh NE 8.3 mph13.4 kmh 29.92 in1013.2 mb 0.00 in0.0 mm 0.00 in/hr0.0 mm/hr 0.05 in1.3 mm
05:35 PM 90.3°F32.4°C 73.6°F23.1°C 58% 1.6 mph NE2.6 kmh NE 8.3 mph13.4 kmh 29.92 in1013.2 mb 0.00 in0.0 mm 0.00 in/hr0.0 mm/hr 0.05 in1.3 mm
05:40 PM 90.5°F32.5°C 74.3°F23.5°C 59% 1.6 mph NNE2.6 kmh NNE 7.6 mph12.2 kmh 29.92 in1013.2 mb 0.00 in0.0 mm 0.00 in/hr0.0 mm/hr 0.05 in1.3 mm
05:45 PM 90.9°F32.7°C 74.1°F23.4°C 58% 2.2 mph NE3.5 kmh NE 6.9 mph11.1 kmh 29.92 in1013.2 mb 0.00 in0.0 mm 0.00 in/hr0.0 mm/hr 0.05 in1.3 mm
05:50 PM 91.0°F32.8°C 74.3°F23.5°C 58% 3.1 mph NE5.0 kmh NE 6.0 mph9.7 kmh 29.92 in1013.2 mb 0.00 in0.0 mm 0.00 in/hr0.0 mm/hr 0.05 in1.3 mm
05:55 PM 91.0°F32.8°C 74.8°F23.8°C 59% 4.5 mph NE7.2 kmh NE 6.9 mph11.1 kmh 29.92 in1013.2 mb 0.00 in0.0 mm 0.00 in/hr0.0 mm/hr 0.05 in1.3 mm
06:00 PM 90.9°F32.7°C 74.1°F23.4°C 58% 4.5 mph E7.2 kmh E 7.6 mph12.2 kmh 29.92 in1013.2 mb 0.00 in0.0 mm 0.00 in/hr0.0 mm/hr 0.05 in1.3 mm
06:05 PM 91.0°F32.8°C 74.3°F23.5°C 58% 1.6 mph ENE2.6 kmh ENE 7.6 mph12.2 kmh 29.92 in1013.2 mb 0.00 in0.0 mm 0.00 in/hr0.0 mm/hr 0.05 in1.3 mm
06:10 PM 91.4°F33.0°C 73.0°F22.8°C 55% 4.5 mph E7.2 kmh E 6.9 mph11.1 kmh 29.92 in1013.2 mb 0.00 in0.0 mm 0.00 in/hr0.0 mm/hr 0.05 in1.3 mm
06:15 PM 91.2°F32.9°C 73.9°F23.3°C 57% 2.2 mph E3.5 kmh E 6.9 mph11.1 kmh 29.92 in1013.2 mb 0.00 in0.0 mm 0.00 in/hr0.0 mm/hr 0.05 in1.3 mm
06:20 PM 91.4°F33.0°C 73.0°F22.8°C 55% 3.8 mph ESE6.1 kmh ESE 6.0 mph9.7 kmh 29.92 in1013.2 mb 0.00 in0.0 mm 0.00 in/hr0.0 mm/hr 0.05 in1.3 mm
06:25 PM 91.4°F33.0°C 72.5°F22.5°C 54% 5.4 mph ESE8.7 kmh ESE 6.9 mph11.1 kmh 29.92 in1013.2 mb 0.00 in0.0 mm 0.00 in/hr0.0 mm/hr 0.05 in1.3 mm
06:30 PM 91.2°F32.9°C 72.9°F22.7°C 55% 2.2 mph E3.5 kmh E 8.3 mph13.4 kmh 29.92 in1013.2 mb 0.00 in0.0 mm 0.00 in/hr0.0 mm/hr 0.05 in1.3 mm
06:35 PM 90.3°F32.4°C 72.0°F22.2°C 55% 6.9 mph E11.1 kmh E 9.8 mph15.8 kmh 29.92 in1013.2 mb 0.00 in0.0 mm 0.00 in/hr0.0 mm/hr 0.05 in1.3 mm
06:40 PM 89.4°F31.9°C 72.2°F22.3°C 57% 3.8 mph E6.1 kmh E 9.8 mph15.8 kmh 29.92 in1013.2 mb 0.00 in0.0 mm 0.00 in/hr0.0 mm/hr 0.05 in1.3 mm
06:45 PM 88.9°F31.6°C 72.3°F22.4°C 58% 2.2 mph E3.5 kmh E 9.8 mph15.8 kmh 29.92 in1013.2 mb 0.00 in0.0 mm 0.00 in/hr0.0 mm/hr 0.05 in1.3 mm
06:50 PM 88.7°F31.5°C 72.6°F22.6°C 59% 2.2 mph E3.5 kmh E 6.0 mph9.7 kmh 29.92 in1013.2 mb 0.00 in0.0 mm 0.00 in/hr0.0 mm/hr 0.05 in1.3 mm
06:55 PM 88.3°F31.3°C 72.3°F22.4°C 59% 3.1 mph E5.0 kmh E 6.0 mph9.7 kmh 29.92 in1013.2 mb 0.00 in0.0 mm 0.00 in/hr0.0 mm/hr 0.05 in1.3 mm
07:00 PM 88.0°F31.1°C 72.4°F22.4°C 60% 3.8 mph E6.1 kmh E 6.0 mph9.7 kmh 29.92 in1013.2 mb 0.00 in0.0 mm 0.00 in/hr0.0 mm/hr 0.05 in1.3 mm
07:05 PM 87.6°F30.9°C 72.6°F22.6°C 61% 2.2 mph E3.5 kmh E 6.0 mph9.7 kmh 29.92 in1013.2 mb 0.00 in0.0 mm 0.00 in/hr0.0 mm/hr 0.05 in1.3 mm
07:10 PM 87.3°F30.7°C 72.2°F22.3°C 61% 3.1 mph ESE5.0 kmh ESE 6.0 mph9.7 kmh 29.92 in1013.2 mb 0.00 in0.0 mm 0.00 in/hr0.0 mm/hr 0.05 in1.3 mm
07:15 PM 87.1°F30.6°C 72.1°F22.3°C 61% 2.2 mph ESE3.5 kmh ESE 7.6 mph12.2 kmh 29.92 in1013.2 mb 0.00 in0.0 mm 0.00 in/hr0.0 mm/hr 0.05 in1.3 mm
07:20 PM 86.7°F30.4°C 72.2°F22.3°C 62% 1.6 mph ESE2.6 kmh ESE 7.6 mph12.2 kmh 29.92 in1013.2 mb 0.00 in0.0 mm 0.00 in/hr0.0 mm/hr 0.05 in1.3 mm
07:25 PM 86.5°F30.3°C 72.0°F22.2°C 62% 3.8 mph ESE6.1 kmh ESE 5.4 mph8.7 kmh 29.92 in1013.2 mb 0.00 in0.0 mm 0.00 in/hr0.0 mm/hr 0.05 in1.3 mm
07:30 PM 86.4°F30.2°C 71.9°F22.2°C 62% 1.6 mph ESE2.6 kmh ESE 6.9 mph11.1 kmh 29.92 in1013.2 mb 0.00 in0.0 mm 0.00 in/hr0.0 mm/hr 0.05 in1.3 mm
07:35 PM 86.2°F30.1°C 71.7°F22.1°C 62% 0.7 mph ESE1.1 kmh ESE 6.9 mph11.1 kmh 29.92 in1013.2 mb 0.00 in0.0 mm 0.00 in/hr0.0 mm/hr 0.05 in1.3 mm
07:40 PM 86.0°F30.0°C 71.5°F21.9°C 62% 2.2 mph ESE3.5 kmh ESE 6.0 mph9.7 kmh 29.92 in1013.2 mb 0.00 in0.0 mm 0.00 in/hr0.0 mm/hr 0.05 in1.3 mm
07:45 PM 85.8°F29.9°C 71.8°F22.1°C 63% 3.1 mph E5.0 kmh E 6.9 mph11.1 kmh 29.92 in1013.2 mb 0.00 in0.0 mm 0.00 in/hr0.0 mm/hr 0.05 in1.3 mm
07:50 PM 85.6°F29.8°C 71.7°F22.1°C 63% 3.1 mph E5.0 kmh E 6.9 mph11.1 kmh 29.92 in1013.2 mb 0.00 in0.0 mm 0.00 in/hr0.0 mm/hr 0.05 in1.3 mm
07:55 PM 85.5°F29.7°C 71.5°F21.9°C 63% 3.1 mph ESE5.0 kmh ESE 6.9 mph11.1 kmh 29.92 in1013.2 mb 0.00 in0.0 mm 0.00 in/hr0.0 mm/hr 0.05 in1.3 mm